WICT2: Wichita River At Wichita Falls, TX

Data processed at Wed May 22 2019 23:30


All information presented herein is the property of the government of the United States of America and may be revised or deleted at any time without prior notice.
Dissemination of this information without the expressed written consent of the Public Affairs Office, Tulsa District U.S. Army Corps of Engineers is strictly prohibited.
These data are gathered electronically and, as presented, have not undergone any form of quality control. These data are not guaranteed to be valid or correct.
Go to home page.
Go to station list.
Go to home page.

Upstream stations:

Downstream station:
Previous Day
Next Day
Current Day
    
SHEF ID:       WICT2     Wichita Rv at Wichita Falls, TX
STATION TYPE:  
Regulating: Stage =    18.50, Flow =     5482

               PRECIP     STAGE  RIV-FLOW  WTR-TEMP   CONDUCT   VOLTAGE  BAT-LOAD
                   in        ft       cfs         F   umho/cm      volt      volt
              Ccp-Rev   Ccp-Rev   Ccp-Rev   Ccp-Rev   Ccp-Rev   Ccp-Rev   Ccp-Rev
(US/Central)
05/22 00:00      0.00     12.43      2665     72.12      1495      ----     12.65
05/22 01:00      0.00     12.45      2673     71.98      1494      ----     12.65
05/22 02:00      0.00     12.49      2689     71.83      1492      ----     12.57
05/22 03:00      0.00     12.51      2697     71.65      1490      ----     12.57
05/22 04:00      0.00     12.53      2705     71.47      1488      ----     12.57
05/22 05:00      0.00     12.53      2705     71.31      1486      ----     12.57
05/22 06:00      0.00     12.54      2709     71.17      1484      ----     12.57
05/22 07:00      0.00     12.52      2701     71.04      1483      ----     12.49
05/22 08:00      0.00     12.51      2697     70.93      1481      ----     12.57
05/22 09:00      0.00     12.49      2689     70.86      1479      ----     12.73
05/22 10:00      0.00     12.47      2681     70.83      1479      ----     13.21
05/22 11:00      0.00     12.45      2673     70.88      1478      ----     13.29
05/22 12:00      0.00     12.43      2665     70.93      1478      ----     13.21
05/22 13:00      0.00     12.40      2654     71.04      1478      ----     12.97
05/22 14:00      0.00     12.37      2642     71.11      1477      ----     13.05
05/22 15:00      0.00     12.35      2634     71.22      1477      ----     12.97
05/22 16:00      0.00     12.35      2634     71.37      1477      ----     12.89
05/22 17:00      0.00     12.32      2622     71.51      1477      ----     12.89
05/22 18:00      0.00     12.31      2618     71.64      1477      ----     12.89
05/22 19:00      0.00     12.31      2618     71.74      1476      ----     12.81
05/22 20:00      0.00     12.30      2614     71.80      1475      ----     12.81
05/22 21:00      0.00     12.31      2618     71.85      1474      ----     12.73
05/22 22:00      0.00     12.30      2614     71.87      1474      ----     12.73
05/22 23:00      ----      ----      ----      ----      ----      ----      ----